sensor_id;sensor_type;location;lat;lon;timestamp;P1;durP1;ratioP1;P2;durP2;ratioP2
69841;SDS011;57138;51.326;-0.068;2022-08-21T00:02:23;19.33;;;3.83;;
69841;SDS011;57138;51.326;-0.068;2022-08-21T00:04:50;18.92;;;3.35;;
69841;SDS011;57138;51.326;-0.068;2022-08-21T00:07:17;20.25;;;4.13;;
69841;SDS011;57138;51.326;-0.068;2022-08-21T00:09:43;27.00;;;5.55;;
69841;SDS011;57138;51.326;-0.068;2022-08-21T00:12:08;15.40;;;3.92;;
69841;SDS011;57138;51.326;-0.068;2022-08-21T00:14:34;21.42;;;4.55;;
69841;SDS011;57138;51.326;-0.068;2022-08-21T00:17:01;17.13;;;3.03;;
69841;SDS011;57138;51.326;-0.068;2022-08-21T00:19:30;24.63;;;6.78;;
69841;SDS011;57138;51.326;-0.068;2022-08-21T00:21:56;14.25;;;3.72;;
69841;SDS011;57138;51.326;-0.068;2022-08-21T00:24:22;18.60;;;3.88;;
69841;SDS011;57138;51.326;-0.068;2022-08-21T00:26:49;16.10;;;3.88;;
69841;SDS011;57138;51.326;-0.068;2022-08-21T00:29:15;20.95;;;4.28;;
69841;SDS011;57138;51.326;-0.068;2022-08-21T00:31:41;21.48;;;4.65;;
69841;SDS011;57138;51.326;-0.068;2022-08-21T00:34:07;17.45;;;4.05;;
69841;SDS011;57138;51.326;-0.068;2022-08-21T00:36:34;22.48;;;3.40;;
69841;SDS011;57138;51.326;-0.068;2022-08-21T00:39:00;16.20;;;3.50;;
69841;SDS011;57138;51.326;-0.068;2022-08-21T00:41:27;16.88;;;3.63;;
69841;SDS011;57138;51.326;-0.068;2022-08-21T00:43:54;21.65;;;3.53;;
69841;SDS011;57138;51.326;-0.068;2022-08-21T00:46:22;32.50;;;5.28;;
69841;SDS011;57138;51.326;-0.068;2022-08-21T00:48:48;18.85;;;3.30;;
69841;SDS011;57138;51.326;-0.068;2022-08-21T00:51:15;16.35;;;3.08;;
69841;SDS011;57138;51.326;-0.068;2022-08-21T00:53:47;14.02;;;3.70;;
69841;SDS011;57138;51.326;-0.068;2022-08-21T00:56:17;19.10;;;3.22;;
69841;SDS011;57138;51.326;-0.068;2022-08-21T00:58:44;24.65;;;4.35;;
69841;SDS011;57138;51.326;-0.068;2022-08-21T01:01:10;17.02;;;3.50;;
69841;SDS011;57138;51.326;-0.068;2022-08-21T01:03:39;20.75;;;4.07;;
69841;SDS011;57138;51.326;-0.068;2022-08-21T01:06:05;23.15;;;4.80;;
69841;SDS011;57138;51.326;-0.068;2022-08-21T01:08:31;21.63;;;4.53;;
69841;SDS011;57138;51.326;-0.068;2022-08-21T01:10:58;15.23;;;4.28;;
69841;SDS011;57138;51.326;-0.068;2022-08-21T01:13:25;17.90;;;3.22;;
69841;SDS011;57138;51.326;-0.068;2022-08-21T01:15:53;23.52;;;4.53;;
69841;SDS011;57138;51.326;-0.068;2022-08-21T01:18:20;17.38;;;3.03;;
69841;SDS011;57138;51.326;-0.068;2022-08-21T01:23:35;12.02;;;3.08;;
69841;SDS011;57138;51.326;-0.068;2022-08-21T01:26:03;20.02;;;4.30;;
69841;SDS011;57138;51.326;-0.068;2022-08-21T01:28:29;15.82;;;3.17;;
69841;SDS011;57138;51.326;-0.068;2022-08-21T01:30:59;16.67;;;3.70;;
69841;SDS011;57138;51.326;-0.068;2022-08-21T01:33:30;19.83;;;4.45;;
69841;SDS011;57138;51.326;-0.068;2022-08-21T01:35:58;18.58;;;2.95;;
69841;SDS011;57138;51.326;-0.068;2022-08-21T01:38:24;19.55;;;4.10;;
69841;SDS011;57138;51.326;-0.068;2022-08-21T01:40:50;23.70;;;3.90;;
69841;SDS011;57138;51.326;-0.068;2022-08-21T01:43:15;20.45;;;4.78;;
69841;SDS011;57138;51.326;-0.068;2022-08-21T01:45:41;23.35;;;3.75;;
69841;SDS011;57138;51.326;-0.068;2022-08-21T01:48:06;18.77;;;3.45;;
69841;SDS011;57138;51.326;-0.068;2022-08-21T01:50:32;19.02;;;3.58;;
69841;SDS011;57138;51.326;-0.068;2022-08-21T01:52:57;19.13;;;4.13;;
69841;SDS011;57138;51.326;-0.068;2022-08-21T01:55:23;26.67;;;4.03;;
69841;SDS011;57138;51.326;-0.068;2022-08-21T01:57:52;21.73;;;5.82;;
69841;SDS011;57138;51.326;-0.068;2022-08-21T02:00:19;30.98;;;5.05;;
69841;SDS011;57138;51.326;-0.068;2022-08-21T02:02:47;22.83;;;4.70;;
69841;SDS011;57138;51.326;-0.068;2022-08-21T02:05:14;20.60;;;3.65;;
69841;SDS011;57138;51.326;-0.068;2022-08-21T02:07:43;28.55;;;4.38;;
69841;SDS011;57138;51.326;-0.068;2022-08-21T02:10:11;22.67;;;3.22;;
69841;SDS011;57138;51.326;-0.068;2022-08-21T02:12:41;15.82;;;4.05;;
69841;SDS011;57138;51.326;-0.068;2022-08-21T02:15:07;26.35;;;5.45;;
69841;SDS011;57138;51.326;-0.068;2022-08-21T02:17:41;19.67;;;4.60;;
69841;SDS011;57138;51.326;-0.068;2022-08-21T02:20:09;21.23;;;5.43;;
69841;SDS011;57138;51.326;-0.068;2022-08-21T02:22:35;17.17;;;3.58;;
69841;SDS011;57138;51.326;-0.068;2022-08-21T02:25:01;15.73;;;3.03;;
69841;SDS011;57138;51.326;-0.068;2022-08-21T02:27:26;22.83;;;5.03;;
69841;SDS011;57138;51.326;-0.068;2022-08-21T02:29:53;17.52;;;2.97;;
69841;SDS011;57138;51.326;-0.068;2022-08-21T02:32:20;19.63;;;3.72;;
69841;SDS011;57138;51.326;-0.068;2022-08-21T02:34:46;18.70;;;3.30;;
69841;SDS011;57138;51.326;-0.068;2022-08-21T02:37:11;13.27;;;3.33;;
69841;SDS011;57138;51.326;-0.068;2022-08-21T02:39:37;22.02;;;5.05;;
69841;SDS011;57138;51.326;-0.068;2022-08-21T02:42:02;17.80;;;3.30;;
69841;SDS011;57138;51.326;-0.068;2022-08-21T02:44:28;14.95;;;3.40;;
69841;SDS011;57138;51.326;-0.068;2022-08-21T02:46:53;16.90;;;4.57;;
69841;SDS011;57138;51.326;-0.068;2022-08-21T02:49:18;17.48;;;4.30;;
69841;SDS011;57138;51.326;-0.068;2022-08-21T02:51:44;15.85;;;3.20;;
69841;SDS011;57138;51.326;-0.068;2022-08-21T02:54:09;21.65;;;3.58;;
69841;SDS011;57138;51.326;-0.068;2022-08-21T02:56:35;22.67;;;3.03;;
69841;SDS011;57138;51.326;-0.068;2022-08-21T02:59:00;14.07;;;2.78;;
69841;SDS011;57138;51.326;-0.068;2022-08-21T03:01:26;26.27;;;3.65;;
69841;SDS011;57138;51.326;-0.068;2022-08-21T03:03:51;17.13;;;2.83;;
69841;SDS011;57138;51.326;-0.068;2022-08-21T03:06:17;15.57;;;3.33;;
69841;SDS011;57138;51.326;-0.068;2022-08-21T03:08:45;18.00;;;3.80;;
69841;SDS011;57138;51.326;-0.068;2022-08-21T03:11:14;21.88;;;3.65;;
69841;SDS011;57138;51.326;-0.068;2022-08-21T03:13:47;21.90;;;3.95;;
69841;SDS011;57138;51.326;-0.068;2022-08-21T03:16:19;20.48;;;4.45;;
69841;SDS011;57138;51.326;-0.068;2022-08-21T03:18:45;19.15;;;5.05;;
69841;SDS011;57138;51.326;-0.068;2022-08-21T03:21:11;22.58;;;3.80;;
69841;SDS011;57138;51.326;-0.068;2022-08-21T03:23:38;19.13;;;3.60;;
69841;SDS011;57138;51.326;-0.068;2022-08-21T03:26:05;19.88;;;3.97;;
69841;SDS011;57138;51.326;-0.068;2022-08-21T03:28:31;19.02;;;3.78;;
69841;SDS011;57138;51.326;-0.068;2022-08-21T03:30:57;14.10;;;3.72;;
69841;SDS011;57138;51.326;-0.068;2022-08-21T03:33:22;25.27;;;3.70;;
69841;SDS011;57138;51.326;-0.068;2022-08-21T03:35:55;22.10;;;4.57;;
69841;SDS011;57138;51.326;-0.068;2022-08-21T03:38:26;21.92;;;4.50;;
69841;SDS011;57138;51.326;-0.068;2022-08-21T03:40:53;24.35;;;4.03;;
69841;SDS011;57138;51.326;-0.068;2022-08-21T03:43:19;24.13;;;4.40;;
69841;SDS011;57138;51.326;-0.068;2022-08-21T03:45:45;24.33;;;4.70;;
69841;SDS011;57138;51.326;-0.068;2022-08-21T03:48:11;20.85;;;3.97;;
69841;SDS011;57138;51.326;-0.068;2022-08-21T03:50:38;25.30;;;3.90;;
69841;SDS011;57138;51.326;-0.068;2022-08-21T03:53:05;18.77;;;4.25;;
69841;SDS011;57138;51.326;-0.068;2022-08-21T03:55:31;18.90;;;4.05;;
69841;SDS011;57138;51.326;-0.068;2022-08-21T03:57:57;18.52;;;3.63;;
69841;SDS011;57138;51.326;-0.068;2022-08-21T04:00:22;16.52;;;3.80;;
69841;SDS011;57138;51.326;-0.068;2022-08-21T04:02:48;25.58;;;6.60;;
69841;SDS011;57138;51.326;-0.068;2022-08-21T04:05:14;19.25;;;3.70;;
69841;SDS011;57138;51.326;-0.068;2022-08-21T04:07:52;26.02;;;4.65;;
69841;SDS011;57138;51.326;-0.068;2022-08-21T04:10:22;24.50;;;4.05;;
69841;SDS011;57138;51.326;-0.068;2022-08-21T04:12:49;18.45;;;4.22;;
69841;SDS011;57138;51.326;-0.068;2022-08-21T04:15:16;20.65;;;3.40;;
69841;SDS011;57138;51.326;-0.068;2022-08-21T04:17:41;19.70;;;3.38;;
69841;SDS011;57138;51.326;-0.068;2022-08-21T04:20:07;23.10;;;4.35;;
69841;SDS011;57138;51.326;-0.068;2022-08-21T04:22:33;18.95;;;3.63;;
69841;SDS011;57138;51.326;-0.068;2022-08-21T04:24:59;28.08;;;4.00;;
69841;SDS011;57138;51.326;-0.068;2022-08-21T04:27:24;19.40;;;3.78;;
69841;SDS011;57138;51.326;-0.068;2022-08-21T04:29:50;22.70;;;4.28;;
69841;SDS011;57138;51.326;-0.068;2022-08-21T04:32:22;15.07;;;3.88;;
69841;SDS011;57138;51.326;-0.068;2022-08-21T04:34:48;23.60;;;4.20;;
69841;SDS011;57138;51.326;-0.068;2022-08-21T04:37:14;29.65;;;4.95;;
69841;SDS011;57138;51.326;-0.068;2022-08-21T04:39:40;24.48;;;3.50;;
69841;SDS011;57138;51.326;-0.068;2022-08-21T04:42:06;16.40;;;3.40;;
69841;SDS011;57138;51.326;-0.068;2022-08-21T04:44:32;12.63;;;2.80;;
69841;SDS011;57138;51.326;-0.068;2022-08-21T04:46:58;23.42;;;3.17;;
69841;SDS011;57138;51.326;-0.068;2022-08-21T04:49:23;12.35;;;3.25;;
69841;SDS011;57138;51.326;-0.068;2022-08-21T04:52:01;21.23;;;3.75;;
69841;SDS011;57138;51.326;-0.068;2022-08-21T04:54:27;24.85;;;4.65;;
69841;SDS011;57138;51.326;-0.068;2022-08-21T04:56:54;21.85;;;4.03;;
69841;SDS011;57138;51.326;-0.068;2022-08-21T04:59:26;19.45;;;3.63;;
69841;SDS011;57138;51.326;-0.068;2022-08-21T05:01:55;17.98;;;4.32;;
69841;SDS011;57138;51.326;-0.068;2022-08-21T05:04:22;14.02;;;2.65;;
69841;SDS011;57138;51.326;-0.068;2022-08-21T05:06:50;17.17;;;3.55;;
69841;SDS011;57138;51.326;-0.068;2022-08-21T05:09:17;12.35;;;2.40;;
69841;SDS011;57138;51.326;-0.068;2022-08-21T05:11:44;15.27;;;2.50;;
69841;SDS011;57138;51.326;-0.068;2022-08-21T05:14:10;19.67;;;2.90;;
69841;SDS011;57138;51.326;-0.068;2022-08-21T05:16:37;15.75;;;2.50;;
69841;SDS011;57138;51.326;-0.068;2022-08-21T05:19:07;14.40;;;2.13;;
69841;SDS011;57138;51.326;-0.068;2022-08-21T05:21:37;12.82;;;2.40;;
69841;SDS011;57138;51.326;-0.068;2022-08-21T05:24:08;14.70;;;2.63;;
69841;SDS011;57138;51.326;-0.068;2022-08-21T05:26:34;13.55;;;2.80;;
69841;SDS011;57138;51.326;-0.068;2022-08-21T05:29:01;15.18;;;4.15;;
69841;SDS011;57138;51.326;-0.068;2022-08-21T05:31:27;17.02;;;3.90;;
69841;SDS011;57138;51.326;-0.068;2022-08-21T05:33:52;14.82;;;3.42;;
69841;SDS011;57138;51.326;-0.068;2022-08-21T05:36:18;11.98;;;3.22;;
69841;SDS011;57138;51.326;-0.068;2022-08-21T05:38:44;16.52;;;3.65;;
69841;SDS011;57138;51.326;-0.068;2022-08-21T05:41:10;14.30;;;3.30;;
69841;SDS011;57138;51.326;-0.068;2022-08-21T05:43:35;23.42;;;3.65;;
69841;SDS011;57138;51.326;-0.068;2022-08-21T05:46:04;21.83;;;4.45;;
69841;SDS011;57138;51.326;-0.068;2022-08-21T05:48:31;15.63;;;3.65;;
69841;SDS011;57138;51.326;-0.068;2022-08-21T05:50:57;24.23;;;4.90;;
69841;SDS011;57138;51.326;-0.068;2022-08-21T05:53:28;18.45;;;3.05;;
69841;SDS011;57138;51.326;-0.068;2022-08-21T05:55:54;14.50;;;2.75;;
69841;SDS011;57138;51.326;-0.068;2022-08-21T05:58:20;18.60;;;3.33;;
69841;SDS011;57138;51.326;-0.068;2022-08-21T06:00:48;15.20;;;2.58;;
69841;SDS011;57138;51.326;-0.068;2022-08-21T06:03:22;16.48;;;3.83;;
69841;SDS011;57138;51.326;-0.068;2022-08-21T06:05:49;23.73;;;4.50;;
69841;SDS011;57138;51.326;-0.068;2022-08-21T06:08:16;19.65;;;5.40;;
69841;SDS011;57138;51.326;-0.068;2022-08-21T06:10:43;13.85;;;2.90;;
69841;SDS011;57138;51.326;-0.068;2022-08-21T06:13:09;14.32;;;3.60;;
69841;SDS011;57138;51.326;-0.068;2022-08-21T06:15:35;17.20;;;3.22;;
69841;SDS011;57138;51.326;-0.068;2022-08-21T06:18:04;21.50;;;4.60;;
69841;SDS011;57138;51.326;-0.068;2022-08-21T06:20:29;13.75;;;3.55;;
69841;SDS011;57138;51.326;-0.068;2022-08-21T06:22:55;13.98;;;3.05;;
69841;SDS011;57138;51.326;-0.068;2022-08-21T06:25:21;16.85;;;2.88;;
69841;SDS011;57138;51.326;-0.068;2022-08-21T06:27:49;13.35;;;3.22;;
69841;SDS011;57138;51.326;-0.068;2022-08-21T06:30:15;15.18;;;4.00;;
69841;SDS011;57138;51.326;-0.068;2022-08-21T06:32:40;19.27;;;3.47;;
69841;SDS011;57138;51.326;-0.068;2022-08-21T06:35:06;25.45;;;3.83;;
69841;SDS011;57138;51.326;-0.068;2022-08-21T06:37:32;21.73;;;4.43;;
69841;SDS011;57138;51.326;-0.068;2022-08-21T06:39:58;15.10;;;3.05;;
69841;SDS011;57138;51.326;-0.068;2022-08-21T06:42:24;12.02;;;2.80;;
69841;SDS011;57138;51.326;-0.068;2022-08-21T06:44:49;23.00;;;3.92;;
69841;SDS011;57138;51.326;-0.068;2022-08-21T06:47:15;21.73;;;3.38;;
69841;SDS011;57138;51.326;-0.068;2022-08-21T06:49:40;17.08;;;4.88;;
69841;SDS011;57138;51.326;-0.068;2022-08-21T06:52:09;20.13;;;3.00;;
69841;SDS011;57138;51.326;-0.068;2022-08-21T06:54:36;19.73;;;3.00;;
69841;SDS011;57138;51.326;-0.068;2022-08-21T06:57:02;13.68;;;3.05;;
69841;SDS011;57138;51.326;-0.068;2022-08-21T06:59:28;23.58;;;4.18;;
69841;SDS011;57138;51.326;-0.068;2022-08-21T07:01:53;15.55;;;2.80;;
69841;SDS011;57138;51.326;-0.068;2022-08-21T07:04:19;23.70;;;2.78;;
69841;SDS011;57138;51.326;-0.068;2022-08-21T07:06:45;21.63;;;3.17;;
69841;SDS011;57138;51.326;-0.068;2022-08-21T07:09:10;13.40;;;3.60;;
69841;SDS011;57138;51.326;-0.068;2022-08-21T07:11:36;12.52;;;2.53;;
69841;SDS011;57138;51.326;-0.068;2022-08-21T07:14:02;16.67;;;4.07;;
69841;SDS011;57138;51.326;-0.068;2022-08-21T07:16:29;14.05;;;2.72;;
69841;SDS011;57138;51.326;-0.068;2022-08-21T07:18:55;15.75;;;2.83;;
69841;SDS011;57138;51.326;-0.068;2022-08-21T07:21:21;16.88;;;2.40;;
69841;SDS011;57138;51.326;-0.068;2022-08-21T07:23:48;15.90;;;2.65;;
69841;SDS011;57138;51.326;-0.068;2022-08-21T07:26:16;13.27;;;2.60;;
69841;SDS011;57138;51.326;-0.068;2022-08-21T07:28:46;14.13;;;2.95;;
69841;SDS011;57138;51.326;-0.068;2022-08-21T07:31:13;13.85;;;2.17;;
69841;SDS011;57138;51.326;-0.068;2022-08-21T07:33:40;10.85;;;2.45;;
69841;SDS011;57138;51.326;-0.068;2022-08-21T07:36:06;15.73;;;3.10;;
69841;SDS011;57138;51.326;-0.068;2022-08-21T07:38:32;15.15;;;2.90;;
69841;SDS011;57138;51.326;-0.068;2022-08-21T07:40:58;12.60;;;2.67;;
69841;SDS011;57138;51.326;-0.068;2022-08-21T07:43:25;22.60;;;2.75;;
69841;SDS011;57138;51.326;-0.068;2022-08-21T07:45:51;20.25;;;2.47;;
69841;SDS011;57138;51.326;-0.068;2022-08-21T07:48:19;16.42;;;3.28;;
69841;SDS011;57138;51.326;-0.068;2022-08-21T07:50:44;10.73;;;2.33;;
69841;SDS011;57138;51.326;-0.068;2022-08-21T07:53:10;14.75;;;2.65;;
69841;SDS011;57138;51.326;-0.068;2022-08-21T07:55:36;14.23;;;2.65;;
69841;SDS011;57138;51.326;-0.068;2022-08-21T07:58:01;19.35;;;2.30;;
69841;SDS011;57138;51.326;-0.068;2022-08-21T08:00:27;10.23;;;1.73;;
69841;SDS011;57138;51.326;-0.068;2022-08-21T08:02:54;12.65;;;2.22;;
69841;SDS011;57138;51.326;-0.068;2022-08-21T08:05:21;13.60;;;2.90;;
69841;SDS011;57138;51.326;-0.068;2022-08-21T08:07:49;9.68;;;2.47;;
69841;SDS011;57138;51.326;-0.068;2022-08-21T08:10:14;13.40;;;2.58;;
69841;SDS011;57138;51.326;-0.068;2022-08-21T08:12:41;16.40;;;3.03;;
69841;SDS011;57138;51.326;-0.068;2022-08-21T08:15:09;15.50;;;2.53;;
69841;SDS011;57138;51.326;-0.068;2022-08-21T08:17:38;12.80;;;1.77;;
69841;SDS011;57138;51.326;-0.068;2022-08-21T08:20:05;8.60;;;2.63;;
69841;SDS011;57138;51.326;-0.068;2022-08-21T08:22:32;11.75;;;2.40;;
69841;SDS011;57138;51.326;-0.068;2022-08-21T08:24:59;13.63;;;2.03;;
69841;SDS011;57138;51.326;-0.068;2022-08-21T08:27:25;8.80;;;1.60;;
69841;SDS011;57138;51.326;-0.068;2022-08-21T08:29:51;11.50;;;2.30;;
69841;SDS011;57138;51.326;-0.068;2022-08-21T08:32:17;10.80;;;2.00;;
69841;SDS011;57138;51.326;-0.068;2022-08-21T08:34:43;13.65;;;2.75;;
69841;SDS011;57138;51.326;-0.068;2022-08-21T08:37:09;8.45;;;1.80;;
69841;SDS011;57138;51.326;-0.068;2022-08-21T08:39:35;11.00;;;2.90;;
69841;SDS011;57138;51.326;-0.068;2022-08-21T08:42:14;10.68;;;2.33;;
69841;SDS011;57138;51.326;-0.068;2022-08-21T08:44:43;9.35;;;1.80;;
69841;SDS011;57138;51.326;-0.068;2022-08-21T08:47:12;15.15;;;3.00;;
69841;SDS011;57138;51.326;-0.068;2022-08-21T08:52:29;12.80;;;3.95;;
69841;SDS011;57138;51.326;-0.068;2022-08-21T08:57:31;19.77;;;3.13;;
69841;SDS011;57138;51.326;-0.068;2022-08-21T09:00:03;11.68;;;2.35;;
69841;SDS011;57138;51.326;-0.068;2022-08-21T09:02:33;12.88;;;1.88;;
69841;SDS011;57138;51.326;-0.068;2022-08-21T09:05:00;10.90;;;1.85;;
69841;SDS011;57138;51.326;-0.068;2022-08-21T09:10:17;8.65;;;2.05;;
69841;SDS011;57138;51.326;-0.068;2022-08-21T09:12:56;16.07;;;2.03;;
69841;SDS011;57138;51.326;-0.068;2022-08-21T09:15:49;13.95;;;3.08;;
69841;SDS011;57138;51.326;-0.068;2022-08-21T09:21:19;12.30;;;3.47;;
69841;SDS011;57138;51.326;-0.068;2022-08-21T09:24:12;10.98;;;1.80;;
69841;SDS011;57138;51.326;-0.068;2022-08-21T09:26:54;9.60;;;1.75;;
69841;SDS011;57138;51.326;-0.068;2022-08-21T09:29:37;12.63;;;2.13;;
69841;SDS011;57138;51.326;-0.068;2022-08-21T09:32:10;7.97;;;1.60;;
69841;SDS011;57138;51.326;-0.068;2022-08-21T09:37:48;13.70;;;2.83;;
69841;SDS011;57138;51.326;-0.068;2022-08-21T09:40:23;16.55;;;2.30;;
69841;SDS011;57138;51.326;-0.068;2022-08-21T09:43:31;13.40;;;1.80;;
69841;SDS011;57138;51.326;-0.068;2022-08-21T09:46:03;13.50;;;2.92;;
69841;SDS011;57138;51.326;-0.068;2022-08-21T09:48:55;6.45;;;1.48;;
69841;SDS011;57138;51.326;-0.068;2022-08-21T09:51:26;8.88;;;1.52;;
69841;SDS011;57138;51.326;-0.068;2022-08-21T09:56:36;10.85;;;2.08;;
69841;SDS011;57138;51.326;-0.068;2022-08-21T09:59:33;7.30;;;1.58;;
69841;SDS011;57138;51.326;-0.068;2022-08-21T10:02:00;9.95;;;1.65;;
69841;SDS011;57138;51.326;-0.068;2022-08-21T10:04:29;9.55;;;2.78;;
69841;SDS011;57138;51.326;-0.068;2022-08-21T10:07:11;7.03;;;1.58;;
69841;SDS011;57138;51.326;-0.068;2022-08-21T10:09:40;13.80;;;1.63;;
69841;SDS011;57138;51.326;-0.068;2022-08-21T10:12:15;21.10;;;5.10;;
69841;SDS011;57138;51.326;-0.068;2022-08-21T10:14:52;9.15;;;1.60;;
69841;SDS011;57138;51.326;-0.068;2022-08-21T10:28:42;6.43;;;1.45;;
69841;SDS011;57138;51.326;-0.068;2022-08-21T10:31:24;8.70;;;1.70;;
69841;SDS011;57138;51.326;-0.068;2022-08-21T10:37:00;10.63;;;2.42;;
69841;SDS011;57138;51.326;-0.068;2022-08-21T10:39:34;10.45;;;1.80;;
69841;SDS011;57138;51.326;-0.068;2022-08-21T10:50:12;5.78;;;1.83;;
69841;SDS011;57138;51.326;-0.068;2022-08-21T10:55:33;14.07;;;2.90;;
69841;SDS011;57138;51.326;-0.068;2022-08-21T10:58:03;9.27;;;1.70;;
69841;SDS011;57138;51.326;-0.068;2022-08-21T11:00:35;8.32;;;1.80;;
69841;SDS011;57138;51.326;-0.068;2022-08-21T11:05:42;9.95;;;1.55;;
69841;SDS011;57138;51.326;-0.068;2022-08-21T11:08:11;12.40;;;1.90;;
69841;SDS011;57138;51.326;-0.068;2022-08-21T11:10:42;11.30;;;1.70;;
69841;SDS011;57138;51.326;-0.068;2022-08-21T11:13:27;8.90;;;1.80;;
69841;SDS011;57138;51.326;-0.068;2022-08-21T11:22:00;6.78;;;1.25;;
69841;SDS011;57138;51.326;-0.068;2022-08-21T11:27:36;6.65;;;1.20;;
69841;SDS011;57138;51.326;-0.068;2022-08-21T11:30:08;6.30;;;1.38;;
69841;SDS011;57138;51.326;-0.068;2022-08-21T11:32:43;8.98;;;2.03;;
69841;SDS011;57138;51.326;-0.068;2022-08-21T11:38:07;10.55;;;1.95;;
69841;SDS011;57138;51.326;-0.068;2022-08-21T11:40:52;17.00;;;2.35;;
69841;SDS011;57138;51.326;-0.068;2022-08-21T11:43:34;13.25;;;2.65;;
69841;SDS011;57138;51.326;-0.068;2022-08-21T11:46:48;7.72;;;2.15;;
69841;SDS011;57138;51.326;-0.068;2022-08-21T11:48:59;7.88;;;1.67;;
69841;SDS011;57138;51.326;-0.068;2022-08-21T11:51:33;8.13;;;2.08;;
69841;SDS011;57138;51.326;-0.068;2022-08-21T11:54:16;9.60;;;1.60;;
69841;SDS011;57138;51.326;-0.068;2022-08-21T11:56:55;9.55;;;1.63;;
69841;SDS011;57138;51.326;-0.068;2022-08-21T11:59:45;8.57;;;1.75;;
69841;SDS011;57138;51.326;-0.068;2022-08-21T12:02:18;11.48;;;3.40;;
69841;SDS011;57138;51.326;-0.068;2022-08-21T12:04:53;7.60;;;2.15;;
69841;SDS011;57138;51.326;-0.068;2022-08-21T12:07:29;9.15;;;1.75;;
69841;SDS011;57138;51.326;-0.068;2022-08-21T12:10:08;6.32;;;1.42;;
69841;SDS011;57138;51.326;-0.068;2022-08-21T12:12:40;7.53;;;1.60;;
69841;SDS011;57138;51.326;-0.068;2022-08-21T12:15:23;8.38;;;1.50;;
69841;SDS011;57138;51.326;-0.068;2022-08-21T12:17:55;8.68;;;1.65;;
69841;SDS011;57138;51.326;-0.068;2022-08-21T12:23:05;8.00;;;1.73;;
69841;SDS011;57138;51.326;-0.068;2022-08-21T12:25:38;10.95;;;2.03;;
69841;SDS011;57138;51.326;-0.068;2022-08-21T12:28:28;7.22;;;1.70;;
69841;SDS011;57138;51.326;-0.068;2022-08-21T12:30:56;8.90;;;1.80;;
69841;SDS011;57138;51.326;-0.068;2022-08-21T12:33:23;10.63;;;2.20;;
69841;SDS011;57138;51.326;-0.068;2022-08-21T12:36:13;11.05;;;2.30;;
69841;SDS011;57138;51.326;-0.068;2022-08-21T12:38:57;13.00;;;2.75;;
69841;SDS011;57138;51.326;-0.068;2022-08-21T12:41:37;8.13;;;2.03;;
69841;SDS011;57138;51.326;-0.068;2022-08-21T12:44:16;9.32;;;1.55;;
69841;SDS011;57138;51.326;-0.068;2022-08-21T12:46:53;10.50;;;1.70;;
69841;SDS011;57138;51.326;-0.068;2022-08-21T12:52:20;8.90;;;1.80;;
69841;SDS011;57138;51.326;-0.068;2022-08-21T12:54:48;9.23;;;1.73;;
69841;SDS011;57138;51.326;-0.068;2022-08-21T12:57:23;9.15;;;1.60;;
69841;SDS011;57138;51.326;-0.068;2022-08-21T12:59:55;9.38;;;2.00;;
69841;SDS011;57138;51.326;-0.068;2022-08-21T13:02:24;8.63;;;1.63;;
69841;SDS011;57138;51.326;-0.068;2022-08-21T13:04:54;8.07;;;1.90;;
69841;SDS011;57138;51.326;-0.068;2022-08-21T13:07:28;8.60;;;2.20;;
69841;SDS011;57138;51.326;-0.068;2022-08-21T13:12:29;9.32;;;2.95;;
69841;SDS011;57138;51.326;-0.068;2022-08-21T13:14:58;6.90;;;1.55;;
69841;SDS011;57138;51.326;-0.068;2022-08-21T13:17:30;5.78;;;1.60;;
69841;SDS011;57138;51.326;-0.068;2022-08-21T13:20:01;8.68;;;2.30;;
69841;SDS011;57138;51.326;-0.068;2022-08-21T13:22:29;7.53;;;1.92;;
69841;SDS011;57138;51.326;-0.068;2022-08-21T13:24:55;7.90;;;2.00;;
69841;SDS011;57138;51.326;-0.068;2022-08-21T13:27:26;7.22;;;1.83;;
69841;SDS011;57138;51.326;-0.068;2022-08-21T13:30:02;7.32;;;2.00;;
69841;SDS011;57138;51.326;-0.068;2022-08-21T13:32:43;8.30;;;2.10;;
69841;SDS011;57138;51.326;-0.068;2022-08-21T13:35:20;8.55;;;2.28;;
69841;SDS011;57138;51.326;-0.068;2022-08-21T13:37:51;12.35;;;2.28;;
69841;SDS011;57138;51.326;-0.068;2022-08-21T13:40:25;9.10;;;3.70;;
69841;SDS011;57138;51.326;-0.068;2022-08-21T13:42:54;9.13;;;2.55;;
69841;SDS011;57138;51.326;-0.068;2022-08-21T13:45:22;7.90;;;2.20;;
69841;SDS011;57138;51.326;-0.068;2022-08-21T13:47:50;8.27;;;2.00;;
69841;SDS011;57138;51.326;-0.068;2022-08-21T13:50:17;8.57;;;2.28;;
69841;SDS011;57138;51.326;-0.068;2022-08-21T13:55:19;9.00;;;2.58;;
69841;SDS011;57138;51.326;-0.068;2022-08-21T13:57:45;6.28;;;1.75;;
69841;SDS011;57138;51.326;-0.068;2022-08-21T14:00:18;10.13;;;2.05;;
69841;SDS011;57138;51.326;-0.068;2022-08-21T14:02:50;8.60;;;1.73;;
69841;SDS011;57138;51.326;-0.068;2022-08-21T14:05:25;10.23;;;2.60;;
69841;SDS011;57138;51.326;-0.068;2022-08-21T14:07:59;17.40;;;2.97;;
69841;SDS011;57138;51.326;-0.068;2022-08-21T14:10:26;12.40;;;2.65;;
69841;SDS011;57138;51.326;-0.068;2022-08-21T14:13:01;8.65;;;2.15;;
69841;SDS011;57138;51.326;-0.068;2022-08-21T14:15:30;9.60;;;2.35;;
69841;SDS011;57138;51.326;-0.068;2022-08-21T14:18:16;8.02;;;2.35;;
69841;SDS011;57138;51.326;-0.068;2022-08-21T14:23:10;8.02;;;1.73;;
69841;SDS011;57138;51.326;-0.068;2022-08-21T14:25:40;11.52;;;2.92;;
69841;SDS011;57138;51.326;-0.068;2022-08-21T14:28:25;8.43;;;2.53;;
69841;SDS011;57138;51.326;-0.068;2022-08-21T14:30:52;13.00;;;3.40;;
69841;SDS011;57138;51.326;-0.068;2022-08-21T14:33:25;8.40;;;2.40;;
69841;SDS011;57138;51.326;-0.068;2022-08-21T14:35:57;8.05;;;2.08;;
69841;SDS011;57138;51.326;-0.068;2022-08-21T14:38:24;11.80;;;3.17;;
69841;SDS011;57138;51.326;-0.068;2022-08-21T14:40:52;8.00;;;2.03;;
69841;SDS011;57138;51.326;-0.068;2022-08-21T14:43:20;7.22;;;2.00;;
69841;SDS011;57138;51.326;-0.068;2022-08-21T14:45:46;9.65;;;1.98;;
69841;SDS011;57138;51.326;-0.068;2022-08-21T14:48:12;11.85;;;2.58;;
69841;SDS011;57138;51.326;-0.068;2022-08-21T14:50:38;7.32;;;2.00;;
69841;SDS011;57138;51.326;-0.068;2022-08-21T14:53:04;9.50;;;3.45;;
69841;SDS011;57138;51.326;-0.068;2022-08-21T14:55:30;7.22;;;2.20;;
69841;SDS011;57138;51.326;-0.068;2022-08-21T14:58:17;6.95;;;2.17;;
69841;SDS011;57138;51.326;-0.068;2022-08-21T15:00:42;12.25;;;2.33;;
69841;SDS011;57138;51.326;-0.068;2022-08-21T15:03:09;9.25;;;1.92;;
69841;SDS011;57138;51.326;-0.068;2022-08-21T15:05:34;9.77;;;2.30;;
69841;SDS011;57138;51.326;-0.068;2022-08-21T15:08:00;7.60;;;2.03;;
69841;SDS011;57138;51.326;-0.068;2022-08-21T15:10:27;6.65;;;1.77;;
69841;SDS011;57138;51.326;-0.068;2022-08-21T15:12:55;11.80;;;2.30;;
69841;SDS011;57138;51.326;-0.068;2022-08-21T15:15:20;7.22;;;2.47;;
69841;SDS011;57138;51.326;-0.068;2022-08-21T15:17:46;6.47;;;1.73;;
69841;SDS011;57138;51.326;-0.068;2022-08-21T15:20:11;6.03;;;1.95;;
69841;SDS011;57138;51.326;-0.068;2022-08-21T15:22:37;9.18;;;2.58;;
69841;SDS011;57138;51.326;-0.068;2022-08-21T15:25:02;11.43;;;2.75;;
69841;SDS011;57138;51.326;-0.068;2022-08-21T15:27:28;10.10;;;2.60;;
69841;SDS011;57138;51.326;-0.068;2022-08-21T15:29:54;9.32;;;2.40;;
69841;SDS011;57138;51.326;-0.068;2022-08-21T15:32:21;12.38;;;2.45;;
69841;SDS011;57138;51.326;-0.068;2022-08-21T15:34:49;7.80;;;1.98;;
69841;SDS011;57138;51.326;-0.068;2022-08-21T15:37:15;11.50;;;2.33;;
69841;SDS011;57138;51.326;-0.068;2022-08-21T15:39:41;13.27;;;4.10;;
69841;SDS011;57138;51.326;-0.068;2022-08-21T15:42:06;9.43;;;3.35;;
69841;SDS011;57138;51.326;-0.068;2022-08-21T15:44:33;8.57;;;2.67;;
69841;SDS011;57138;51.326;-0.068;2022-08-21T15:46:59;8.45;;;2.25;;
69841;SDS011;57138;51.326;-0.068;2022-08-21T15:49:25;10.10;;;2.70;;
69841;SDS011;57138;51.326;-0.068;2022-08-21T15:51:50;8.75;;;2.50;;